Time;durP1;ratioP1;P1;durP2;ratioP2;P2;SDS_P1;SDS_P2;PMS_P1;PMS_P2;Temp;Humidity;BMP_temperature;BMP_pressure;BME280_temperature;BME280_humidity;BME280_pressure;Samples;Min_cycle;Max_cycle;Signal;HPM_P1;HPM_P2
2022/05/24 06:26:27;;;;;;;;;2.00;0.67;;;;;14.96;100.00;99205.16;6379749;22;45795;-89
2022/05/24 06:28:53;;;;;;;;;0.33;0.33;;;;;15.11;100.00;99229.84;6380109;22;45197;-92
2022/05/24 06:31:18;;;;;;;;;2.00;1.00;;;;;15.14;100.00;99235.16;6378820;22;52491;-92
2022/05/24 06:33:43;;;;;;;;;2.00;1.00;;;;;15.19;100.00;99220.19;6380565;22;45153;-90
2022/05/24 06:36:09;;;;;;;;;0.67;0.67;;;;;15.25;100.00;99216.66;6378653;22;45229;-93
2022/05/24 06:38:36;;;;;;;;;1.00;1.00;;;;;15.33;100.00;99221.97;6380888;22;45304;-90
2022/05/24 06:41:02;;;;;;;;;1.00;0.33;;;;;15.42;100.00;99234.28;6379317;22;47226;-92
2022/05/24 06:43:27;;;;;;;;;0.33;0.33;;;;;15.52;100.00;99230.78;6377843;22;44779;-89
2022/05/24 06:45:52;;;;;;;;;0.00;0.00;;;;;15.51;100.00;99221.06;6380479;22;49278;-89
2022/05/24 06:48:19;;;;;;;;;0.33;0.33;;;;;15.55;100.00;99245.75;6378131;22;45639;-89
2022/05/24 06:50:44;;;;;;;;;1.67;0.67;;;;;15.60;100.00;99249.28;6383059;22;63727;-93
2022/05/24 06:53:10;;;;;;;;;3.33;0.67;;;;;15.73;100.00;99244.00;6387193;22;45387;-90
2022/05/24 06:55:37;;;;;;;;;2.67;1.00;;;;;15.76;100.00;99249.31;6394689;22;45029;-91
2022/05/24 06:58:02;;;;;;;;;1.00;0.33;;;;;15.85;100.00;99257.22;6393238;22;44673;-91
2022/05/24 07:03:15;;;;;;;;;1.00;1.00;;;;;16.05;100.00;99269.63;6377620;22;45232;-93
2022/05/24 07:05:42;;;;;;;;;0.00;0.00;;;;;16.16;100.00;99261.63;6377284;22;45399;-93
2022/05/24 07:08:08;;;;;;;;;1.00;1.00;;;;;16.27;100.00;99255.44;6380049;22;44748;-91
2022/05/24 07:10:37;;;;;;;;;0.67;0.67;;;;;16.29;100.00;99258.97;6382433;22;45213;-92
2022/05/24 07:13:05;;;;;;;;;0.00;0.00;;;;;16.29;100.00;99275.72;6379118;22;44864;-92
2022/05/24 07:15:32;;;;;;;;;0.00;0.00;;;;;16.22;100.00;99278.38;6392290;22;45110;-90
2022/05/24 07:17:57;;;;;;;;;1.00;0.00;;;;;16.22;100.00;99286.34;6381655;22;45248;-92
2022/05/24 07:20:25;;;;;;;;;0.00;0.00;;;;;16.27;100.00;99280.16;6374978;22;47792;-92
2022/05/24 07:22:51;;;;;;;;;0.00;0.00;;;;;16.36;100.00;99273.09;6376112;22;45249;-90
2022/05/24 07:25:16;;;;;;;;;0.00;0.00;;;;;16.42;100.00;99271.28;6379732;22;44727;-94
2022/05/24 07:27:42;;;;;;;;;0.33;0.33;;;;;16.41;100.00;99268.66;6379313;22;45222;-93
2022/05/24 07:32:50;;;;;;;;;1.67;0.67;;;;;16.45;100.00;99257.16;6400751;22;45237;-92
2022/05/24 07:48:12;;;;;;;;;1.00;0.00;;;;;17.15;100.00;99278.94;6374029;22;45523;-89
2022/05/24 07:55:48;;;;;;;;;1.00;1.00;;;;;17.54;100.00;99289.38;6380864;22;45150;-93
2022/05/24 07:58:14;;;;;;;;;1.00;1.00;;;;;17.75;100.00;99287.44;6385902;22;44701;-90
2022/05/24 08:00:40;;;;;;;;;0.00;0.00;;;;;17.97;100.00;99292.56;6380808;22;48253;-92
2022/05/24 08:03:06;;;;;;;;;1.00;1.00;;;;;17.96;100.00;99267.78;6379507;22;44872;-89
2022/05/24 08:05:34;;;;;;;;;1.00;1.00;;;;;18.02;100.00;99284.56;6386048;22;45528;-87
2022/05/24 08:08:00;;;;;;;;;1.33;0.00;;;;;18.23;100.00;99296.78;6379055;22;45268;-88
2022/05/24 08:10:27;;;;;;;;;1.00;1.00;;;;;18.41;100.00;99286.88;6374425;22;47405;-88
2022/05/24 08:12:52;;;;;;;;;0.33;0.33;;;;;18.39;100.00;99291.31;6378250;22;45367;-86
2022/05/24 08:15:19;;;;;;;;;0.00;0.00;;;;;18.28;100.00;99294.97;6377440;22;45264;-86
2022/05/24 08:17:45;;;;;;;;;0.00;0.00;;;;;18.20;100.00;99305.66;6369248;22;45387;-87
2022/05/24 08:20:12;;;;;;;;;1.00;0.00;;;;;18.37;100.00;99314.38;6375349;22;45362;-86
2022/05/24 08:22:39;;;;;;;;;0.00;0.00;;;;;18.51;100.00;99295.63;6378330;22;45311;-86
2022/05/24 08:25:07;;;;;;;;;0.00;0.00;;;;;18.53;100.00;99310.66;6389387;22;44743;-88
2022/05/24 08:27:33;;;;;;;;;1.00;1.00;;;;;18.34;100.00;99323.25;6390367;22;45233;-86
2022/05/24 08:32:34;;;;;;;;;1.00;0.00;;;;;18.26;100.00;99310.03;6386147;22;45979;-89
2022/05/24 08:35:00;;;;;;;;;0.00;0.00;;;;;18.36;100.00;99316.13;6393379;22;44798;-90
2022/05/24 08:37:25;;;;;;;;;1.00;0.33;;;;;18.55;100.00;99315.97;6365937;22;46061;-90
2022/05/24 08:39:51;;;;;;;;;0.00;0.00;;;;;18.73;100.00;99328.16;6381639;22;45334;-90
2022/05/24 08:42:38;;;;;;;;;0.00;0.00;;;;;18.91;100.00;99323.53;6377285;22;45316;-88
2022/05/24 09:11:20;;;;;;;;;0.00;0.00;;;;;19.33;100.00;99348.72;6414023;22;45350;-93
2022/05/24 09:14:04;;;;;;;;;1.00;0.00;;;;;19.31;100.00;99386.00;6412383;22;45296;-92
2022/05/24 09:16:45;;;;;;;;;0.67;0.67;;;;;19.50;100.00;99360.94;6409826;22;45242;-91
2022/05/24 09:19:21;;;;;;;;;0.33;0.33;;;;;19.64;100.00;99363.38;6358165;22;45531;-92
2022/05/24 09:21:51;;;;;;;;;0.00;0.00;;;;;19.90;100.00;99361.22;6374257;22;46370;-92
2022/05/24 09:29:26;;;;;;;;;0.00;0.00;;;;;20.31;100.00;99407.66;6420266;22;44877;-89
2022/05/24 09:31:51;;;;;;;;;0.00;0.00;;;;;20.41;100.00;99400.38;6350041;22;46744;-94
2022/05/24 09:34:17;;;;;;;;;0.00;0.00;;;;;20.47;100.00;99409.19;6375742;22;45244;-93
2022/05/24 09:36:55;;;;;;;;;0.00;0.00;;;;;20.72;100.00;99422.94;6379970;22;45173;-93
2022/05/24 09:39:27;;;;;;;;;0.00;0.00;;;;;20.72;100.00;99396.28;6385336;22;45240;-94
2022/05/24 09:41:59;;;;;;;;;0.00;0.00;;;;;20.97;100.00;99379.84;6386736;22;47049;-93
2022/05/24 09:44:26;;;;;;;;;0.00;0.00;;;;;21.35;100.00;99372.88;6368790;22;44671;-94
2022/05/24 09:46:52;;;;;;;;;0.00;0.00;;;;;21.17;100.00;99461.28;6369528;22;46061;-93
2022/05/24 09:49:32;;;;;;;;;0.67;0.00;;;;;20.82;100.00;99447.66;6407294;22;45812;-93
2022/05/24 09:52:12;;;;;;;;;1.33;1.33;;;;;20.52;100.00;99479.28;6419990;22;46314;-87
2022/05/24 10:10:58;;;;;;;;;0.67;0.67;;;;;30.83;100.00;99645.78;6419810;22;45027;-93
2022/05/24 10:13:42;;;;;;;;;1.00;0.00;;;;;30.38;100.00;99813.41;6390294;22;47249;-91
2022/05/24 10:16:30;;;;;;;;;0.33;0.33;;;;;28.62;97.86;100432.75;6427689;22;44718;-94
2022/05/24 10:19:21;;;;;;;;;0.00;0.00;;;;;27.01;95.11;100457.50;6418107;22;44765;-95
2022/05/24 10:21:53;;;;;;;;;0.33;0.33;;;;;26.08;97.80;100338.00;6392038;22;44829;-95
2022/05/24 10:24:46;;;;;;;;;0.00;0.00;;;;;26.98;100.00;100145.25;6415779;22;45583;-94
2022/05/24 10:27:37;;;;;;;;;0.00;0.00;;;;;29.35;100.00;100182.41;6411387;22;45318;-95
2022/05/24 10:30:11;;;;;;;;;0.33;0.33;;;;;30.80;100.00;100249.06;6393606;22;44666;-95
2022/05/24 10:41:52;;;;;;;;;1.33;0.00;;;;;39.02;81.75;100559.03;6412664;22;44872;-92
2022/05/24 10:44:25;;;;;;;;;0.00;0.00;;;;;38.65;73.08;100600.19;6422577;22;45335;-95
2022/05/24 10:47:04;;;;;;;;;0.00;0.00;;;;;39.93;74.24;100582.91;6402863;22;45457;-96
2022/05/24 10:52:33;;;;;;;;;0.00;0.00;;;;;39.96;59.37;100632.09;6415682;22;45267;-94
2022/05/24 10:55:10;;;;;;;;;0.33;0.33;;;;;36.99;61.09;100632.06;6409138;22;45238;-96
2022/05/24 11:08:21;;;;;;;;;1.00;0.00;;;;;31.94;72.91;100531.06;6380641;22;46401;-95
2022/05/24 11:13:59;;;;;;;;;0.67;0.67;;;;;30.67;68.53;100599.00;6407942;22;45229;-96
2022/05/24 11:16:58;;;;;;;;;0.33;0.00;;;;;31.27;68.44;100593.78;6351065;22;45703;-93
2022/05/24 11:19:27;;;;;;;;;0.00;0.00;;;;;31.47;68.65;100573.03;6324364;22;47246;-95
2022/05/24 11:25:06;;;;;;;;;1.00;0.67;;;;;30.62;68.26;100571.22;6385976;22;45231;-96
2022/05/24 11:27:41;;;;;;;;;0.00;0.00;;;;;32.20;70.78;100566.94;6380404;22;45333;-95
2022/05/24 11:30:07;;;;;;;;;0.00;0.00;;;;;34.87;69.51;100588.09;6371075;22;45164;-95
2022/05/24 11:32:38;;;;;;;;;0.00;0.00;;;;;37.71;70.39;100589.72;6373537;22;45384;-94
2022/05/24 11:35:06;;;;;;;;;0.67;0.00;;;;;37.48;61.17;100627.84;6373350;22;45223;-95
2022/05/24 11:37:36;;;;;;;;;0.00;0.00;;;;;36.92;62.44;100627.13;6369557;22;45464;-94
2022/05/24 11:40:32;;;;;;;;;0.00;0.00;;;;;36.00;61.21;100634.91;6367163;22;45482;-95
2022/05/24 11:43:03;;;;;;;;;0.00;0.00;;;;;36.49;63.46;100612.66;6269643;22;45450;-95
2022/05/24 11:45:29;;;;;;;;;2.67;1.67;;;;;36.44;62.88;100615.72;6246123;22;45242;-95
2022/05/24 11:47:54;;;;;;;;;0.00;0.00;;;;;36.92;64.57;100617.06;6269832;22;45282;-96
2022/05/24 11:50:31;;;;;;;;;0.00;0.00;;;;;37.31;63.13;100624.44;6242409;22;47046;-95
2022/05/24 11:53:26;;;;;;;;;0.00;0.00;;;;;36.50;61.95;100620.75;6270313;22;45631;-96
2022/05/24 11:55:54;;;;;;;;;0.00;0.00;;;;;35.22;61.59;100630.53;6269885;22;45289;-92
2022/05/24 11:58:20;;;;;;;;;0.00;0.00;;;;;36.16;61.88;100629.28;6269969;22;45585;-93
2022/05/24 12:01:05;;;;;;;;;0.00;0.00;;;;;36.18;63.23;100626.47;6243325;22;46978;-94
2022/05/24 12:09:55;;;;;;;;;0.00;0.00;;;;;35.72;60.52;100645.69;6276435;22;45715;-96
2022/05/24 12:12:29;;;;;;;;;0.00;0.00;;;;;35.73;59.76;100644.72;6248471;22;47261;-96
2022/05/24 12:15:15;;;;;;;;;0.00;0.00;;;;;37.07;60.90;100636.13;6275007;22;45836;-96
2022/05/24 12:17:41;;;;;;;;;0.00;0.00;;;;;37.57;60.92;100632.69;6269291;22;45215;-93
2022/05/24 12:20:29;;;;;;;;;0.00;0.00;;;;;38.33;60.35;100639.09;6309540;22;45579;-95
2022/05/24 12:23:04;;;;;;;;;0.00;0.00;;;;;38.34;59.81;100647.22;6367310;22;46444;-96
2022/05/24 12:25:54;;;;;;;;;1.00;0.00;;;;;38.39;58.13;100638.69;6372223;22;45113;-93
2022/05/24 12:28:26;;;;;;;;;0.00;0.00;;;;;38.42;60.42;100637.56;6375244;22;45609;-93
2022/05/24 12:30:52;;;;;;;;;0.00;0.00;;;;;38.74;59.77;100631.47;6375649;22;45425;-93
2022/05/24 12:33:31;;;;;;;;;0.00;0.00;;;;;38.89;59.74;100632.19;6371541;22;47158;-96
2022/05/24 12:36:41;;;;;;;;;0.00;0.00;;;;;37.30;56.99;100636.34;6366075;22;45328;-94
2022/05/24 12:39:06;;;;;;;;;0.00;0.00;;;;;35.26;55.45;100631.22;6364034;22;45343;-95
2022/05/24 12:41:45;;;;;;;;;1.00;0.00;;;;;33.56;56.79;100635.28;6363775;22;46084;-93
2022/05/24 12:44:10;;;;;;;;;0.00;0.00;;;;;32.33;58.01;100634.22;6362293;22;46162;-96
2022/05/24 12:46:37;;;;;;;;;0.00;0.00;;;;;34.02;61.16;100615.66;6363042;22;45342;-96
2022/05/24 12:49:09;;;;;;;;;0.00;0.00;;;;;37.74;61.62;100606.81;6365401;22;45558;-95
2022/05/24 12:51:36;;;;;;;;;0.00;0.00;;;;;41.58;60.19;100621.28;6366590;22;45387;-95
2022/05/24 12:54:13;;;;;;;;;0.00;0.00;;;;;44.24;56.94;100626.88;6363207;22;46400;-94
2022/05/24 12:56:39;;;;;;;;;0.00;0.00;;;;;44.49;54.33;100627.13;6365088;22;45459;-94
2022/05/24 12:59:12;;;;;;;;;0.00;0.00;;;;;44.14;52.82;100626.94;6356204;22;45552;-96
2022/05/24 13:01:41;;;;;;;;;0.00;0.00;;;;;45.54;51.11;100632.97;6363701;22;45428;-94
2022/05/24 13:04:23;;;;;;;;;0.00;0.00;;;;;44.59;45.91;100640.91;6366294;22;46940;-94
2022/05/24 13:06:49;;;;;;;;;0.00;0.00;;;;;42.14;47.46;100639.34;6367302;22;45354;-94
2022/05/24 13:09:28;;;;;;;;;0.00;0.00;;;;;40.04;48.76;100628.72;6366232;22;45470;-94
2022/05/24 13:12:03;;;;;;;;;0.00;0.00;;;;;38.24;50.19;100624.25;6365493;22;45555;-93
2022/05/24 13:14:37;;;;;;;;;0.00;0.00;;;;;37.58;49.53;100626.19;6366380;22;46085;-95
2022/05/24 13:17:10;;;;;;;;;0.00;0.00;;;;;37.75;49.66;100613.16;6366648;22;45282;-94
2022/05/24 13:19:51;;;;;;;;;0.00;0.00;;;;;36.35;50.47;100622.63;6369885;22;45243;-94
2022/05/24 13:22:19;;;;;;;;;0.00;0.00;;;;;35.67;51.97;100626.88;6371452;22;45224;-94
2022/05/24 13:24:59;;;;;;;;;0.00;0.00;;;;;38.01;52.69;100613.13;6371560;22;45394;-94
2022/05/24 13:27:26;;;;;;;;;0.00;0.00;;;;;39.58;51.99;100625.09;6375470;22;45176;-94
2022/05/24 13:35:30;;;;;;;;;0.00;0.00;;;;;45.26;48.95;100630.34;6365517;22;45639;-96
2022/05/24 13:37:58;;;;;;;;;0.00;0.00;;;;;46.60;48.03;100636.44;6367937;22;45294;-96
2022/05/24 13:40:39;;;;;;;;;0.00;0.00;;;;;45.43;46.95;100635.00;6368606;22;45256;-96
2022/05/24 13:43:06;;;;;;;;;0.00;0.00;;;;;44.96;46.70;100639.84;6368641;22;45643;-96
2022/05/24 13:45:34;;;;;;;;;0.00;0.00;;;;;44.74;45.91;100646.75;6367394;22;46269;-96
2022/05/24 13:48:20;;;;;;;;;0.00;0.00;;;;;44.18;45.14;100647.72;6364948;22;45265;-96
2022/05/24 13:50:46;;;;;;;;;0.00;0.00;;;;;43.45;46.30;100640.06;6367315;22;45287;-96
2022/05/24 13:53:35;;;;;;;;;0.00;0.00;;;;;42.52;46.55;100640.44;6368839;22;45746;-95
2022/05/24 13:56:06;;;;;;;;;0.00;0.00;;;;;42.25;47.01;100638.31;6365597;22;46059;-96
2022/05/24 13:58:37;;;;;;;;;0.00;0.00;;;;;43.40;46.54;100636.88;6365804;22;45316;-94
2022/05/24 14:01:31;;;;;;;;;0.00;0.00;;;;;45.35;46.50;100636.81;6366626;22;45404;-96
2022/05/24 14:04:04;;;;;;;;;0.00;0.00;;;;;45.45;44.03;100639.50;6365274;22;45782;-96
2022/05/24 14:06:30;;;;;;;;;0.00;0.00;;;;;46.60;44.66;100642.84;6365660;22;46915;-95
2022/05/24 14:08:58;;;;;;;;;0.00;0.00;;;;;48.18;45.79;100643.53;6367415;22;45240;-94
2022/05/24 14:11:27;;;;;;;;;0.00;0.00;;;;;49.78;44.91;100642.06;6368068;22;45270;-96
2022/05/24 14:13:53;;;;;;;;;0.00;0.00;;;;;51.18;45.65;100640.03;6367707;22;45280;-96
2022/05/24 14:16:20;;;;;;;;;0.00;0.00;;;;;52.36;41.39;100655.16;6367243;22;47045;-96
2022/05/24 14:18:46;;;;;;;;;0.00;0.00;;;;;53.15;40.35;100644.41;6368490;22;45170;-96
2022/05/24 14:21:12;;;;;;;;;0.00;0.00;;;;;53.53;39.74;100647.56;6369226;22;45643;-96
2022/05/24 14:23:37;;;;;;;;;0.00;0.00;;;;;51.20;36.74;100670.56;6371351;22;45334;-95
2022/05/24 14:26:04;;;;;;;;;0.00;0.00;;;;;47.95;37.44;100661.03;6366893;22;47344;-93
2022/05/24 14:28:30;;;;;;;;;0.00;0.00;;;;;44.93;38.19;100654.00;6364727;22;45401;-94
2022/05/24 14:30:56;;;;;;;;;0.00;0.00;;;;;42.22;38.98;100672.56;6364133;22;45369;-95
2022/05/24 14:33:23;;;;;;;;;0.00;0.00;;;;;39.82;40.14;100668.09;6365817;22;45357;-95
2022/05/24 14:35:49;;;;;;;;;0.00;0.00;;;;;38.70;42.22;100668.34;6363297;22;46390;-94
2022/05/24 14:38:15;;;;;;;;;0.00;0.00;;;;;38.27;42.16;100670.56;6364008;22;46058;-95
2022/05/24 14:40:42;;;;;;;;;0.00;0.00;;;;;38.64;42.82;100677.91;6369261;22;45357;-95
2022/05/24 14:43:14;;;;;;;;;0.00;0.00;;;;;39.08;42.16;100660.91;6367751;22;45293;-93
2022/05/24 14:45:40;;;;;;;;;0.00;0.00;;;;;38.23;42.93;100675.41;6362832;22;46766;-95
2022/05/24 14:48:06;;;;;;;;;0.00;0.00;;;;;36.80;41.98;100673.44;6366781;22;45285;-93
2022/05/24 14:50:35;;;;;;;;;0.00;0.00;;;;;35.11;43.25;100666.66;6366392;22;45809;-96
2022/05/24 14:53:00;;;;;;;;;0.00;0.00;;;;;33.68;44.22;100660.09;6368085;22;45425;-92
2022/05/24 14:55:27;;;;;;;;;0.00;0.00;;;;;32.48;45.49;100665.16;6367034;22;45496;-96
2022/05/24 14:57:53;;;;;;;;;0.00;0.00;;;;;31.51;46.14;100670.44;6368119;22;45196;-96
2022/05/24 15:00:22;;;;;;;;;0.00;0.00;;;;;30.77;48.02;100662.66;6369387;22;45362;-96
2022/05/24 15:02:48;;;;;;;;;0.00;0.00;;;;;30.18;48.33;100660.47;6375906;22;45199;-95
2022/05/24 15:05:13;;;;;;;;;0.00;0.00;;;;;29.74;48.19;100669.34;6370410;22;45580;-95
2022/05/24 15:15:54;;;;;;;;;0.00;0.00;;;;;28.39;51.77;100673.72;6376236;22;45214;-95
2022/05/24 15:18:20;;;;;;;;;0.00;0.00;;;;;28.19;52.00;100676.09;6400482;22;45734;-95
2022/05/24 15:20:46;;;;;;;;;0.00;0.00;;;;;27.83;51.82;100705.94;6367392;22;45338;-94
2022/05/24 15:23:26;;;;;;;;;1.00;0.00;;;;;27.24;54.53;100706.50;6367014;22;45490;-95
2022/05/24 15:25:59;;;;;;;;;0.00;0.00;;;;;26.65;56.60;100696.22;6364603;22;45713;-93
2022/05/24 15:28:28;;;;;;;;;0.00;0.00;;;;;26.16;58.74;100698.16;6367580;22;45382;-94
2022/05/24 15:30:54;;;;;;;;;0.00;0.00;;;;;25.82;59.38;100683.63;6368602;22;45314;-96
2022/05/24 15:33:20;;;;;;;;;0.00;0.00;;;;;25.44;60.54;100681.56;6363039;22;45330;-93
2022/05/24 15:35:45;;;;;;;;;1.00;0.00;;;;;25.07;63.28;100658.94;6365360;22;45313;-96
2022/05/24 15:38:10;;;;;;;;;0.00;0.00;;;;;24.65;63.49;100658.66;6360704;22;45330;-95
2022/05/24 15:40:37;;;;;;;;;0.00;0.00;;;;;24.18;64.46;100663.75;6363246;22;45387;-95
2022/05/24 15:43:04;;;;;;;;;0.00;0.00;;;;;23.81;66.20;100623.09;6365349;22;45325;-94
2022/05/24 15:45:31;;;;;;;;;1.00;1.00;;;;;23.52;67.50;100589.50;6367038;22;46037;-93
2022/05/24 15:47:56;;;;;;;;;0.00;0.00;;;;;23.26;67.94;100578.16;6373766;22;45351;-96
2022/05/24 15:50:21;;;;;;;;;0.00;0.00;;;;;23.03;70.04;100515.03;6375608;22;45311;-95
2022/05/24 15:52:48;;;;;;;;;0.00;0.00;;;;;22.81;70.74;100484.91;6364631;22;45496;-94
2022/05/24 15:55:14;;;;;;;;;1.00;0.00;;;;;22.60;71.92;100433.41;6369341;22;45205;-96
2022/05/24 15:57:39;;;;;;;;;0.00;0.00;;;;;22.41;73.22;100385.44;6371026;22;45553;-96
2022/05/24 16:00:10;;;;;;;;;0.00;0.00;;;;;22.25;74.11;100347.28;6375313;22;45584;-95
2022/05/24 16:02:36;;;;;;;;;0.00;0.00;;;;;22.13;75.10;100314.44;6370477;22;45271;-92
2022/05/24 16:10:30;;;;;;;;;0.00;0.00;;;;;21.74;77.90;100203.47;6379281;22;44741;-96
2022/05/24 16:12:56;;;;;;;;;3.00;1.33;;;;;21.73;78.62;100176.75;6381016;22;44867;-94
2022/05/24 16:15:24;;;;;;;;;1.00;1.00;;;;;21.74;80.39;100109.97;6377855;22;46476;-95
2022/05/24 16:17:55;;;;;;;;;1.33;1.33;;;;;21.82;80.20;100128.59;6378670;22;45345;-95
2022/05/24 16:20:20;;;;;;;;;0.00;0.00;;;;;21.92;80.33;100125.81;6380621;22;44626;-95
2022/05/24 16:22:46;;;;;;;;;0.00;0.00;;;;;22.05;80.78;100105.19;6377929;22;44821;-94
2022/05/24 16:25:13;;;;;;;;;0.67;0.00;;;;;22.22;81.54;100104.94;6378555;22;46439;-95
2022/05/24 16:27:39;;;;;;;;;0.00;0.00;;;;;22.29;82.11;100098.63;6378150;22;45160;-95
2022/05/24 16:30:05;;;;;;;;;1.00;1.00;;;;;22.38;81.45;100129.69;6379957;22;45335;-95
2022/05/24 16:32:32;;;;;;;;;2.67;1.00;;;;;22.42;81.46;100155.47;6374286;22;44883;-94
2022/05/24 16:34:57;;;;;;;;;0.00;0.00;;;;;22.38;81.05;100172.47;6373649;22;46402;-95
2022/05/24 16:37:22;;;;;;;;;0.00;0.00;;;;;22.23;80.69;100191.38;6377752;22;45276;-95
2022/05/24 16:39:48;;;;;;;;;0.00;0.00;;;;;22.10;80.51;100203.09;6379490;22;45276;-95
2022/05/24 16:42:15;;;;;;;;;1.33;0.00;;;;;21.94;81.31;100156.06;6378889;22;45327;-94
2022/05/24 16:44:41;;;;;;;;;0.00;0.00;;;;;21.82;82.02;100149.94;6376913;22;46106;-95
2022/05/24 16:47:07;;;;;;;;;0.00;0.00;;;;;21.64;82.15;100130.56;6380289;22;45293;-96
2022/05/24 16:49:32;;;;;;;;;0.00;0.00;;;;;21.50;81.83;100133.34;6386430;22;45223;-95
2022/05/24 16:52:10;;;;;;;;;2.00;1.33;;;;;21.41;81.81;100144.13;6383955;22;45394;-95
2022/05/24 17:00:14;;;;;;;;;3.00;2.00;;;;;21.03;83.48;100076.88;6382979;22;44688;-95
2022/05/24 17:02:53;;;;;;;;;0.00;0.00;;;;;20.92;84.19;100028.94;6382870;22;45331;-94
2022/05/24 17:05:20;;;;;;;;;2.00;0.00;;;;;20.81;84.60;100016.56;6380750;22;48169;-94
2022/05/24 17:07:46;;;;;;;;;0.00;0.00;;;;;20.72;84.61;99998.88;6377869;22;45149;-95
2022/05/24 17:10:13;;;;;;;;;1.00;0.00;;;;;20.63;85.21;99980.28;6373532;22;45134;-94
2022/05/24 17:12:40;;;;;;;;;0.00;0.00;;;;;20.52;85.44;99951.94;6381437;22;45192;-94
2022/05/24 17:15:10;;;;;;;;;0.00;0.00;;;;;20.47;84.57;100001.75;6380525;22;45479;-95
2022/05/24 17:17:38;;;;;;;;;0.00;0.00;;;;;20.42;85.41;99980.47;6380378;22;44671;-96
2022/05/24 17:20:05;;;;;;;;;0.00;0.00;;;;;20.36;86.49;99945.84;6378706;22;45353;-93
2022/05/24 17:22:30;;;;;;;;;2.00;0.67;;;;;20.27;85.24;99986.78;6380056;22;44869;-95
2022/05/24 17:24:56;;;;;;;;;0.00;0.00;;;;;20.20;87.05;99922.00;6379810;22;46545;-94
2022/05/24 17:27:21;;;;;;;;;1.00;0.00;;;;;20.17;85.78;99964.66;6404252;22;44689;-94
2022/05/24 17:29:47;;;;;;;;;0.00;0.00;;;;;20.11;85.96;99959.34;6377747;22;45279;-95
2022/05/24 17:32:19;;;;;;;;;0.00;0.00;;;;;20.07;86.71;99937.19;6380406;22;44845;-95
2022/05/24 17:34:44;;;;;;;;;1.00;0.00;;;;;20.08;86.60;99935.38;6385765;22;45231;-94
2022/05/24 17:37:10;;;;;;;;;1.00;1.00;;;;;20.09;87.64;99905.19;6390663;22;44709;-95
2022/05/24 17:39:36;;;;;;;;;3.67;2.00;;;;;20.12;88.98;99849.28;6395183;22;44647;-96
2022/05/24 17:42:01;;;;;;;;;1.67;1.67;;;;;20.20;89.52;99838.53;6390987;22;45207;-95
2022/05/24 17:44:27;;;;;;;;;1.00;1.00;;;;;20.26;89.36;99843.78;6390880;22;46912;-95
2022/05/24 17:46:53;;;;;;;;;1.00;0.00;;;;;20.31;88.98;99847.31;6391802;22;45772;-96
2022/05/24 17:49:19;;;;;;;;;0.00;0.00;;;;;20.32;89.63;99842.88;6418063;22;45162;-95
2022/05/24 17:51:45;;;;;;;;;0.33;0.00;;;;;20.26;88.76;99866.88;6378828;22;45497;-93
2022/05/24 17:54:11;;;;;;;;;2.00;0.00;;;;;20.15;88.71;99875.84;6372112;22;46820;-96
2022/05/24 17:56:36;;;;;;;;;0.33;0.33;;;;;20.10;89.18;99867.03;6376943;22;44682;-95
2022/05/24 17:59:03;;;;;;;;;1.00;1.00;;;;;20.05;89.14;99861.69;6382059;22;44684;-96
2022/05/24 18:01:28;;;;;;;;;1.00;1.00;;;;;19.96;89.67;99846.69;6377948;22;45326;-96
2022/05/24 18:03:53;;;;;;;;;0.33;0.33;;;;;19.88;90.53;99817.47;6374385;22;47966;-95
2022/05/24 18:06:19;;;;;;;;;0.00;0.00;;;;;19.84;91.89;99785.56;6372950;22;51220;-96
2022/05/24 18:08:44;;;;;;;;;0.00;0.00;;;;;19.75;91.12;99786.50;6382904;22;44619;-93
2022/05/24 18:11:10;;;;;;;;;0.00;0.00;;;;;19.70;91.96;99777.66;6382153;22;45140;-95
2022/05/24 18:13:35;;;;;;;;;0.00;0.00;;;;;19.59;91.67;99783.06;6377248;22;47547;-96
2022/05/24 18:16:01;;;;;;;;;0.33;0.33;;;;;19.54;93.26;99752.06;6381796;22;45493;-96
2022/05/24 18:18:26;;;;;;;;;0.00;0.00;;;;;19.49;92.45;99763.63;6386739;22;44824;-95
2022/05/24 18:20:57;;;;;;;;;0.00;0.00;;;;;19.47;93.12;99765.44;6382102;22;45203;-95
2022/05/24 18:23:36;;;;;;;;;1.33;1.33;;;;;19.43;93.45;99754.81;6384781;22;45974;-94
2022/05/24 18:34:29;;;;;;;;;0.00;0.00;;;;;19.26;96.33;99711.47;6371130;22;45758;-90
2022/05/24 18:37:00;;;;;;;;;0.00;0.00;;;;;19.26;97.14;99706.16;6368878;22;46525;-89
2022/05/24 18:39:25;;;;;;;;;0.00;0.00;;;;;19.22;96.59;99702.66;6373073;22;45374;-89
2022/05/24 18:41:50;;;;;;;;;0.00;0.00;;;;;19.20;96.61;99718.59;6374818;22;45322;-89
2022/05/24 18:44:16;;;;;;;;;0.00;0.00;;;;;19.20;97.41;99707.06;6364997;22;61848;-90
2022/05/24 18:46:41;;;;;;;;;0.00;0.00;;;;;19.20;98.25;99683.13;6376983;22;45282;-88
2022/05/24 18:49:06;;;;;;;;;0.33;0.33;;;;;19.19;98.57;99692.03;6373600;22;45216;-90
2022/05/24 18:51:32;;;;;;;;;1.00;0.00;;;;;19.17;97.80;99694.66;6370407;22;45303;-89
2022/05/24 18:53:58;;;;;;;;;0.00;0.00;;;;;19.15;98.26;99692.91;6369253;22;45635;-90
2022/05/24 18:56:28;;;;;;;;;0.00;0.00;;;;;19.12;97.62;99709.75;6380224;22;45176;-89
2022/05/24 18:58:54;;;;;;;;;1.00;0.00;;;;;19.12;98.00;99707.09;6370881;22;45306;-90
2022/05/24 19:01:20;;;;;;;;;0.00;0.00;;;;;19.10;98.17;99711.56;6372730;22;45339;-90
2022/05/24 19:03:46;;;;;;;;;0.00;0.00;;;;;19.07;98.87;99707.13;6379068;22;46397;-90
2022/05/24 19:06:12;;;;;;;;;1.00;0.00;;;;;19.04;99.46;99708.94;6378632;22;45363;-89
2022/05/24 19:08:37;;;;;;;;;0.00;0.00;;;;;18.97;100.00;99681.50;6378748;22;45220;-90
2022/05/24 19:11:02;;;;;;;;;1.00;1.00;;;;;18.89;99.64;99697.50;6374627;22;45442;-90
2022/05/24 19:13:27;;;;;;;;;0.00;0.00;;;;;18.83;100.00;99697.53;6381262;22;46362;-89
2022/05/24 19:15:53;;;;;;;;;0.00;0.00;;;;;18.75;100.00;99693.16;6371887;22;45602;-89
2022/05/24 19:18:20;;;;;;;;;1.00;1.00;;;;;18.67;100.00;99679.03;6370110;22;45654;-89
2022/05/24 19:20:46;;;;;;;;;1.00;0.67;;;;;18.59;100.00;99670.19;6370989;22;45299;-90
2022/05/24 19:23:12;;;;;;;;;1.33;0.00;;;;;18.52;100.00;99693.28;6370036;22;46235;-89
2022/05/24 19:25:37;;;;;;;;;0.00;0.00;;;;;18.43;100.00;99689.75;6372603;22;45186;-89
2022/05/24 19:28:03;;;;;;;;;0.00;0.00;;;;;18.36;100.00;99711.94;6373976;22;45462;-91
2022/05/24 19:30:29;;;;;;;;;1.00;0.00;;;;;18.29;100.00;99702.22;6369529;22;45225;-89
2022/05/24 19:32:55;;;;;;;;;1.00;1.00;;;;;18.22;100.00;99705.78;6371262;22;46393;-89
2022/05/24 19:35:21;;;;;;;;;0.00;0.00;;;;;18.19;100.00;99717.28;6367007;22;45389;-91
2022/05/24 19:37:46;;;;;;;;;0.00;0.00;;;;;18.12;100.00;99715.50;6369812;22;45338;-90
2022/05/24 19:42:56;;;;;;;;;1.00;0.00;;;;;17.98;100.00;99725.28;6367594;22;45716;-91
2022/05/24 19:45:21;;;;;;;;;0.00;0.00;;;;;17.91;100.00;99715.53;6371465;22;45298;-89
2022/05/24 19:47:46;;;;;;;;;0.00;0.00;;;;;17.86;100.00;99722.63;6370703;22;45479;-90
2022/05/24 19:50:16;;;;;;;;;0.00;0.00;;;;;17.80;100.00;99728.84;6375236;22;46679;-89
2022/05/24 19:52:42;;;;;;;;;2.00;0.00;;;;;17.74;100.00;99731.50;6373266;22;48563;-90
2022/05/24 19:55:10;;;;;;;;;0.00;0.00;;;;;17.70;100.00;99732.41;6377038;22;45365;-90
2022/05/24 19:57:36;;;;;;;;;0.67;0.00;;;;;17.62;100.00;99732.41;6378851;22;45316;-90
2022/05/24 20:00:05;;;;;;;;;0.00;0.00;;;;;17.57;100.00;99729.75;6372606;22;45440;-89
2022/05/24 20:02:30;;;;;;;;;0.67;0.67;;;;;17.51;100.00;99738.59;6373319;22;45348;-88
2022/05/24 20:04:56;;;;;;;;;0.33;0.00;;;;;17.44;100.00;99739.47;6369432;22;45291;-89
2022/05/24 20:07:21;;;;;;;;;1.00;0.00;;;;;17.42;100.00;99755.38;6370543;22;45248;-91
2022/05/24 20:09:48;;;;;;;;;1.00;1.00;;;;;17.37;100.00;99754.47;6372976;22;45196;-88
2022/05/24 20:12:14;;;;;;;;;0.00;0.00;;;;;17.34;100.00;99757.16;6373028;22;46323;-89
2022/05/24 20:14:40;;;;;;;;;0.00;0.00;;;;;17.30;100.00;99750.94;6372076;22;45554;-91
2022/05/24 20:17:08;;;;;;;;;0.00;0.00;;;;;17.25;100.00;99760.66;6366178;22;45387;-90
2022/05/24 20:19:36;;;;;;;;;1.00;0.00;;;;;17.20;100.00;99768.59;6370476;22;45377;-91
2022/05/24 20:22:02;;;;;;;;;0.00;0.00;;;;;17.17;100.00;99780.97;6372361;22;46469;-93
2022/05/24 20:24:34;;;;;;;;;1.00;1.00;;;;;17.12;100.00;99772.06;6372802;22;45162;-92
2022/05/24 20:27:21;;;;;;;;;2.00;0.67;;;;;17.05;100.00;99769.44;6368181;22;45421;-92